Time;durP1;ratioP1;P1;durP2;ratioP2;P2;SDS_P1;SDS_P2;PMS_P1;PMS_P2;Temp;Humidity;BMP_temperature;BMP_pressure;BME280_temperature;BME280_humidity;BME280_pressure;Samples;Min_cycle;Max_cycle;Signal;HPM_P1;HPM_P2
2022/01/07 00:05:06;;;;;;;25.98;10.88;;;;;;;3.71;94.89;101269.31;10446259;28;20076;-67
2022/01/07 00:10:28;;;;;;;33.33;11.13;;;;;;;3.69;95.22;101259.00;10381973;28;20057;-66
2022/01/07 00:15:52;;;;;;;23.38;10.70;;;;;;;3.66;94.45;101251.38;10360903;28;20050;-66
2022/01/07 00:21:14;;;;;;;26.23;10.30;;;;;;;3.65;94.61;101249.69;10360283;28;20391;-66
2022/01/07 00:26:36;;;;;;;27.10;9.88;;;;;;;3.71;93.12;101239.19;10360025;28;20057;-66
2022/01/07 00:31:58;;;;;;;24.48;10.35;;;;;;;3.68;93.66;101226.41;10360474;28;20049;-66
2022/01/07 00:37:19;;;;;;;31.13;10.35;;;;;;;3.70;95.18;101227.19;10359744;28;20387;-67
2022/01/07 00:42:41;;;;;;;26.83;10.75;;;;;;;3.68;93.95;101213.50;10359498;28;20050;-67
2022/01/07 00:48:03;;;;;;;31.42;10.85;;;;;;;3.64;95.11;101198.19;10384421;28;20046;-66
2022/01/07 00:53:24;;;;;;;29.48;10.88;;;;;;;3.63;93.40;101184.47;10375362;28;20052;-66
2022/01/07 00:58:46;;;;;;;30.05;10.25;;;;;;;3.57;95.23;101179.50;10416850;28;20124;-67
2022/01/07 01:04:08;;;;;;;28.02;11.77;;;;;;;3.66;94.35;101166.31;10415450;28;20073;-67
2022/01/07 01:09:30;;;;;;;23.80;11.43;;;;;;;3.56;94.19;101161.53;10345019;28;20496;-67
2022/01/07 01:14:52;;;;;;;27.52;10.93;;;;;;;3.56;93.85;101152.03;10358418;28;20666;-67
2022/01/07 01:20:14;;;;;;;31.65;11.55;;;;;;;3.61;93.57;101152.75;10358140;28;20042;-67
2022/01/07 01:25:35;;;;;;;20.85;10.43;;;;;;;3.56;94.08;101146.88;10357350;28;20061;-67
2022/01/07 01:30:57;;;;;;;26.42;10.02;;;;;;;3.56;94.05;101136.56;10370918;28;20060;-66
2022/01/07 01:36:19;;;;;;;31.60;11.05;;;;;;;3.62;92.83;101126.09;10382171;28;20133;-67
2022/01/07 01:41:42;;;;;;;29.42;10.43;;;;;;;3.61;92.89;101123.53;10410114;28;20054;-67
2022/01/07 01:47:04;;;;;;;28.88;9.60;;;;;;;3.61;92.71;101119.25;10385646;28;20052;-66
2022/01/07 01:52:25;;;;;;;22.35;9.13;;;;;;;3.64;91.70;101105.41;10410118;28;20053;-67
2022/01/07 01:57:47;;;;;;;26.08;8.65;;;;;;;3.64;91.13;101108.00;10410683;28;20561;-66
2022/01/07 02:03:09;;;;;;;22.45;9.27;;;;;;;3.68;91.50;101100.09;10403558;28;20053;-67
2022/01/07 02:08:31;;;;;;;25.08;9.00;;;;;;;3.66;91.39;101086.41;10394903;28;20414;-66
2022/01/07 02:13:56;;;;;;;23.77;8.20;;;;;;;3.61;92.79;101083.16;10410980;28;20048;-67
2022/01/07 02:19:17;;;;;;;20.00;7.25;;;;;;;3.62;91.62;101071.97;10369436;28;20054;-66
2022/01/07 02:24:39;;;;;;;24.50;7.47;;;;;;;3.64;91.82;101075.31;10382768;28;20516;-67
2022/01/07 02:30:01;;;;;;;17.92;6.35;;;;;;;3.51;92.92;101060.31;10437624;28;20056;-66
2022/01/07 02:35:25;;;;;;;17.73;7.20;;;;;;;3.44;94.38;101059.66;10403518;28;20060;-68
2022/01/07 02:40:47;;;;;;;20.73;6.57;;;;;;;3.42;95.20;101060.63;10399706;28;20383;-66
2022/01/07 02:46:09;;;;;;;14.43;6.38;;;;;;;3.30;97.25;101063.56;10406598;28;20053;-67
2022/01/07 02:51:30;;;;;;;15.60;6.30;;;;;;;3.19;97.93;101050.19;10397982;28;20054;-66
2022/01/07 02:56:52;;;;;;;20.30;6.97;;;;;;;3.12;99.35;101038.41;10355279;28;20100;-66
2022/01/07 03:02:14;;;;;;;19.00;6.70;;;;;;;3.08;100.00;101035.06;10388035;28;20068;-66
2022/01/07 03:07:37;;;;;;;24.13;7.22;;;;;;;2.97;100.00;101016.53;10436647;28;20622;-66
2022/01/07 03:13:00;;;;;;;23.13;7.15;;;;;;;2.97;100.00;101005.41;10423652;28;20057;-66
2022/01/07 03:18:22;;;;;;;13.55;6.68;;;;;;;2.90;100.00;100991.88;10404400;28;20115;-66
2022/01/07 03:23:44;;;;;;;17.10;6.65;;;;;;;2.93;100.00;100983.22;10361810;28;20053;-66
2022/01/07 03:29:06;;;;;;;16.08;6.72;;;;;;;2.88;100.00;100974.78;10407163;28;20053;-66
2022/01/07 03:34:27;;;;;;;16.33;7.07;;;;;;;3.01;100.00;100966.63;10415697;28;20046;-66
2022/01/07 03:39:49;;;;;;;16.52;6.88;;;;;;;2.94;100.00;100954.84;10420006;28;20041;-67
2022/01/07 03:45:12;;;;;;;18.63;7.22;;;;;;;2.86;100.00;100954.25;10415895;28;20061;-66
2022/01/07 03:50:33;;;;;;;24.38;7.60;;;;;;;2.94;100.00;100947.13;10410929;28;20049;-67
2022/01/07 03:55:55;;;;;;;21.08;7.13;;;;;;;3.01;100.00;100946.03;10395315;28;20170;-66
2022/01/07 04:01:17;;;;;;;16.95;7.63;;;;;;;2.99;100.00;100937.53;10387766;28;20490;-66
2022/01/07 04:06:39;;;;;;;24.77;8.00;;;;;;;2.91;100.00;100928.38;10359726;28;20089;-66
2022/01/07 04:12:00;;;;;;;20.48;8.70;;;;;;;2.73;100.00;100920.38;10402411;28;20053;-67
2022/01/07 04:17:22;;;;;;;22.90;9.30;;;;;;;2.76;100.00;100913.41;10403786;28;20060;-66
2022/01/07 04:22:44;;;;;;;17.40;9.20;;;;;;;2.76;100.00;100910.00;10368289;28;20053;-66
2022/01/07 04:28:07;;;;;;;18.30;9.15;;;;;;;2.78;100.00;100923.63;10346493;28;20525;-66
2022/01/07 04:33:32;;;;;;;20.90;9.00;;;;;;;2.71;100.00;100914.44;10394278;28;20049;-66
2022/01/07 04:38:54;;;;;;;23.17;9.40;;;;;;;2.74;100.00;100909.22;10376379;28;20050;-66
2022/01/07 04:44:16;;;;;;;18.20;10.32;;;;;;;2.76;100.00;100902.28;10381781;28;20045;-66
2022/01/07 04:49:38;;;;;;;18.83;9.85;;;;;;;2.71;100.00;100889.53;10384750;28;20057;-66
2022/01/07 04:55:00;;;;;;;14.93;9.10;;;;;;;2.74;100.00;100883.47;10388507;28;20057;-67
2022/01/07 05:00:24;;;;;;;16.42;9.80;;;;;;;2.72;100.00;100872.38;10346328;28;20490;-67
2022/01/07 05:05:51;;;;;;;18.38;9.45;;;;;;;2.67;100.00;100871.69;10358436;28;20422;-66
2022/01/07 05:11:13;;;;;;;17.88;9.70;;;;;;;2.77;100.00;100865.34;10387199;28;20049;-66
2022/01/07 05:16:34;;;;;;;18.23;9.35;;;;;;;2.80;100.00;100855.81;10359687;28;20054;-67
2022/01/07 05:21:56;;;;;;;16.67;9.00;;;;;;;2.80;100.00;100836.94;10371684;28;20052;-67
2022/01/07 05:27:18;;;;;;;16.98;9.10;;;;;;;2.86;100.00;100846.16;10344919;28;20045;-67
2022/01/07 05:32:39;;;;;;;16.05;9.23;;;;;;;2.91;100.00;100841.66;10382902;28;20055;-66
2022/01/07 05:38:01;;;;;;;14.57;8.60;;;;;;;2.97;100.00;100841.47;10358198;28;20065;-66
2022/01/07 05:43:23;;;;;;;14.57;8.13;;;;;;;2.99;100.00;100829.41;10374055;28;20041;-66
2022/01/07 05:48:46;;;;;;;15.23;8.38;;;;;;;2.99;100.00;100824.25;10410647;28;20053;-66
2022/01/07 05:54:08;;;;;;;11.98;8.63;;;;;;;3.05;100.00;100824.06;10398038;28;20049;-67
2022/01/07 05:59:30;;;;;;;12.50;8.75;;;;;;;3.00;100.00;100809.63;10376924;28;20525;-67
2022/01/07 06:04:51;;;;;;;13.52;8.18;;;;;;;2.95;100.00;100796.09;10356138;28;20053;-66
2022/01/07 06:10:13;;;;;;;16.92;9.07;;;;;;;2.95;100.00;100796.94;10355619;28;20044;-66
2022/01/07 06:15:35;;;;;;;13.60;8.68;;;;;;;2.98;100.00;100799.41;10437866;28;20051;-66
2022/01/07 06:20:56;;;;;;;12.20;8.40;;;;;;;3.05;100.00;100788.00;10411671;28;20041;-67
2022/01/07 06:26:18;;;;;;;12.75;8.40;;;;;;;3.01;100.00;100786.44;10356271;28;20062;-66
2022/01/07 06:31:40;;;;;;;14.95;8.88;;;;;;;3.01;100.00;100781.28;10365623;28;20374;-67
2022/01/07 06:37:03;;;;;;;14.85;8.95;;;;;;;2.98;100.00;100781.38;10404735;28;20089;-66
2022/01/07 06:42:24;;;;;;;12.13;8.93;;;;;;;2.95;100.00;100791.78;10395308;28;20048;-66
2022/01/07 06:47:46;;;;;;;14.93;9.77;;;;;;;2.91;100.00;100785.03;10417018;28;20049;-65
2022/01/07 06:53:08;;;;;;;14.70;9.73;;;;;;;2.90;100.00;100782.53;10350916;28;20059;-65
2022/01/07 06:58:49;;;;;;;13.80;9.63;;;;;;;2.88;100.00;100790.31;10364478;28;20502;-66
2022/01/07 07:04:11;;;;;;;16.17;10.27;;;;;;;2.95;100.00;100778.91;10363189;28;20072;-65
2022/01/07 07:09:35;;;;;;;21.38;11.00;;;;;;;2.96;100.00;100775.44;10366357;28;20050;-66
2022/01/07 07:14:57;;;;;;;13.60;9.57;;;;;;;2.94;100.00;100778.97;10442729;28;20041;-65
2022/01/07 07:20:19;;;;;;;18.30;9.90;;;;;;;2.99;100.00;100767.63;10376912;28;20414;-66
2022/01/07 07:25:41;;;;;;;14.65;10.02;;;;;;;2.98;100.00;100763.38;10362907;28;20058;-66
2022/01/07 07:31:05;;;;;;;20.85;10.05;;;;;;;3.02;100.00;100782.97;10363868;28;20396;-65
2022/01/07 07:36:30;;;;;;;13.90;9.25;;;;;;;3.06;100.00;100779.38;10392371;28;20060;-66
2022/01/07 07:41:51;;;;;;;15.43;9.93;;;;;;;3.03;100.00;100779.50;10406448;28;20053;-67
2022/01/07 07:47:18;;;;;;;14.13;9.82;;;;;;;3.04;100.00;100788.91;10426824;28;20520;-65
2022/01/07 07:52:40;;;;;;;11.88;9.43;;;;;;;3.07;100.00;100800.81;10392299;28;20049;-66
2022/01/07 07:58:02;;;;;;;21.15;9.25;;;;;;;3.03;100.00;100799.22;10360845;28;20414;-66
2022/01/07 08:03:24;;;;;;;17.05;8.88;;;;;;;3.11;100.00;100795.50;10360865;28;20790;-66
2022/01/07 08:08:46;;;;;;;11.15;8.68;;;;;;;3.14;100.00;100797.13;10357649;28;20060;-66
2022/01/07 08:19:50;;;;;;;12.65;9.00;;;;;;;3.19;100.00;100785.78;10400005;28;20379;-65
2022/01/07 08:25:12;;;;;;;15.32;9.00;;;;;;;3.19;100.00;100788.38;10359535;28;20050;-66
2022/01/07 08:30:58;;;;;;;13.77;8.80;;;;;;;3.26;100.00;100779.50;10361127;28;20046;-66
2022/01/07 08:36:20;;;;;;;;;;;;;;;3.24;100.00;100777.91;10395747;28;20056;-66
2022/01/07 08:41:42;;;;;;;17.02;8.18;;;;;;;3.24;100.00;100765.84;10441576;28;19921;-66
2022/01/07 08:47:04;;;;;;;17.08;9.30;;;;;;;3.31;100.00;100769.91;10400318;28;20068;-66
2022/01/07 08:52:26;;;;;;;13.95;8.18;;;;;;;3.31;100.00;100774.19;10395526;28;20046;-66
2022/01/07 08:57:47;;;;;;;14.82;8.77;;;;;;;3.43;100.00;100773.75;10360862;28;20060;-66
2022/01/07 09:03:09;;;;;;;32.55;8.90;;;;;;;3.46;100.00;100777.06;10357643;28;20060;-66
2022/01/07 09:08:31;;;;;;;14.73;7.97;;;;;;;3.45;100.00;100767.66;10357221;28;20540;-67
2022/01/07 09:13:53;;;;;;;10.60;7.22;;;;;;;3.46;100.00;100774.50;10430480;28;20509;-66
2022/01/07 09:19:14;;;;;;;12.52;8.02;;;;;;;3.45;100.00;100772.81;10388880;28;20069;-67
2022/01/07 09:24:36;;;;;;;22.17;8.60;;;;;;;3.55;100.00;100766.41;10356298;28;20050;-66
2022/01/07 09:29:58;;;;;;;13.50;7.75;;;;;;;3.56;100.00;100762.94;10371962;28;20054;-66
2022/01/07 09:35:27;;;;;;;12.98;7.72;;;;;;;3.63;100.00;100772.13;10472281;28;20450;-65
2022/01/07 09:40:51;;;;;;;16.05;8.73;;;;;;;3.70;100.00;100771.00;10443905;28;20042;-65
2022/01/07 09:46:15;;;;;;;14.75;8.65;;;;;;;3.72;100.00;100782.09;10430648;28;20061;-65
2022/01/07 09:51:39;;;;;;;15.18;8.90;;;;;;;3.74;100.00;100772.56;10443881;28;20081;-66
2022/01/07 09:57:01;;;;;;;16.35;9.07;;;;;;;3.85;100.00;100768.69;10445832;28;20053;-65
2022/01/07 10:02:23;;;;;;;16.30;9.30;;;;;;;3.92;100.00;100774.44;10445409;28;20052;-66
2022/01/07 10:07:45;;;;;;;23.50;9.60;;;;;;;4.03;100.00;100767.13;10444069;28;20072;-65
2022/01/07 10:13:07;;;;;;;45.47;11.95;;;;;;;4.06;100.00;100772.19;10447426;28;20048;-66
2022/01/07 10:18:37;;;;;;;17.25;9.73;;;;;;;4.09;100.00;100765.16;10420647;28;20053;-65
2022/01/07 10:24:02;;;;;;;18.20;10.30;;;;;;;4.17;100.00;100759.69;10390241;28;20049;-65
2022/01/07 10:29:28;;;;;;;87.10;15.32;;;;;;;4.25;100.00;100763.66;10402720;28;20063;-65
2022/01/07 10:35:14;;;;;;;26.00;11.38;;;;;;;4.27;100.00;100763.56;10419638;28;20490;-65
2022/01/07 10:40:36;;;;;;;57.75;12.60;;;;;;;4.34;100.00;100746.97;10438723;28;20065;-65
2022/01/07 10:46:00;;;;;;;28.52;10.48;;;;;;;4.38;100.00;100740.75;10417782;28;20054;-65
2022/01/07 10:51:25;;;;;;;22.83;10.95;;;;;;;4.36;100.00;100747.75;10398096;28;20584;-65
2022/01/07 10:56:48;;;;;;;22.80;10.97;;;;;;;4.45;100.00;100740.44;10380609;28;20053;-66
2022/01/07 11:02:09;;;;;;;20.13;10.93;;;;;;;4.46;100.00;100741.31;10410295;28;20296;-66
2022/01/07 11:07:32;;;;;;;32.35;12.93;;;;;;;4.52;100.00;100741.03;10390462;28;20137;-66
2022/01/07 11:12:54;;;;;;;144.35;19.75;;;;;;;4.52;100.00;100738.44;10401966;28;20471;-66
2022/01/07 11:18:16;;;;;;;27.80;11.65;;;;;;;4.58;100.00;100733.03;10413528;28;20398;-65
2022/01/07 11:23:38;;;;;;;29.63;11.68;;;;;;;4.69;100.00;100736.00;10413848;28;20048;-66
2022/01/07 11:29:03;;;;;;;31.63;12.82;;;;;;;4.73;100.00;100728.06;10414428;28;20057;-65
2022/01/07 11:34:25;;;;;;;22.65;11.85;;;;;;;4.75;100.00;100724.53;10414033;28;20269;-65
2022/01/07 11:39:47;;;;;;;22.98;12.10;;;;;;;4.91;100.00;100716.94;10414006;28;20049;-66
2022/01/07 11:45:34;;;;;;;24.00;11.63;;;;;;;4.98;100.00;100718.38;10413476;28;20060;-66
2022/01/07 11:50:55;;;;;;;41.50;13.52;;;;;;;5.01;100.00;100716.50;10412400;28;20501;-66
2022/01/07 11:56:22;;;;;;;19.95;10.98;;;;;;;5.05;100.00;100706.84;10399981;28;20057;-66
2022/01/07 12:01:55;;;;;;;20.77;10.68;;;;;;;5.10;100.00;100705.75;10413051;28;20088;-66
2022/01/07 12:07:37;;;;;;;18.73;9.52;;;;;;;5.12;100.00;100701.34;10412301;28;20080;-66
2022/01/07 12:13:00;;;;;;;17.85;10.32;;;;;;;5.12;100.00;100698.78;10399585;28;20045;-66
2022/01/07 12:18:21;;;;;;;20.85;10.73;;;;;;;5.10;100.00;100710.91;10406522;28;20050;-66
2022/01/07 12:23:44;;;;;;;25.23;11.10;;;;;;;5.06;100.00;100714.56;10371446;28;20046;-65
2022/01/07 12:29:13;;;;;;;15.50;7.75;;;;;;;4.95;100.00;100705.59;10371586;28;20406;-66
2022/01/07 12:34:40;;;;;;;12.57;6.18;;;;;;;4.77;100.00;100693.47;10398994;28;20052;-65
2022/01/07 12:40:05;;;;;;;11.40;7.38;;;;;;;4.76;100.00;100677.16;10374457;28;20490;-65
2022/01/07 12:45:27;;;;;;;12.93;7.47;;;;;;;4.76;100.00;100682.31;10399353;28;20046;-65
2022/01/07 12:50:49;;;;;;;12.05;6.53;;;;;;;4.89;100.00;100675.72;10403577;28;20132;-65
2022/01/07 12:56:21;;;;;;;14.40;7.35;;;;;;;4.90;100.00;100656.72;10367579;28;20049;-64
2022/01/07 13:01:45;;;;;;;16.23;7.93;;;;;;;5.09;100.00;100647.28;10384165;28;20051;-65
2022/01/07 13:07:07;;;;;;;16.48;8.63;;;;;;;5.14;100.00;100650.47;10410995;28;20061;-65
2022/01/07 13:12:29;;;;;;;21.05;10.18;;;;;;;5.14;100.00;100640.13;10409398;28;20053;-65
2022/01/07 13:17:51;;;;;;;19.17;10.45;;;;;;;5.22;100.00;100653.56;10410583;28;20064;-64
2022/01/07 13:23:14;;;;;;;15.95;9.90;;;;;;;5.17;100.00;100658.06;10408481;28;20417;-63
2022/01/07 13:28:42;;;;;;;16.13;10.85;;;;;;;5.20;100.00;100655.38;10402701;28;20052;-65
2022/01/07 13:34:03;;;;;;;16.73;10.52;;;;;;;5.12;100.00;100662.59;10392649;28;20049;-64
2022/01/07 13:39:25;;;;;;;17.98;9.98;;;;;;;5.11;100.00;100648.00;10409478;28;20053;-64
2022/01/07 13:44:50;;;;;;;18.05;9.38;;;;;;;5.11;100.00;100650.59;10411298;28;20065;-64
2022/01/07 13:50:14;;;;;;;20.30;9.20;;;;;;;5.11;100.00;100647.19;10410472;28;20049;-65
2022/01/07 13:55:36;;;;;;;16.17;9.18;;;;;;;5.11;100.00;100660.09;10402492;28;20073;-64
2022/01/07 14:01:05;;;;;;;17.50;8.98;;;;;;;5.16;100.00;100658.97;10356808;28;20384;-65
2022/01/07 14:06:27;;;;;;;17.90;8.88;;;;;;;5.20;100.00;100655.38;10395675;28;20060;-64
2022/01/07 14:12:03;;;;;;;11.32;7.30;;;;;;;5.06;100.00;100651.72;10405467;28;20050;-64
2022/01/07 14:17:25;;;;;;;7.05;4.03;;;;;;;4.98;100.00;100656.41;10371103;28;20478;-64
2022/01/07 14:22:47;;;;;;;6.20;3.85;;;;;;;4.88;100.00;100652.53;10391442;28;20045;-64
2022/01/07 14:28:09;;;;;;;6.68;2.42;;;;;;;4.77;100.00;100649.59;10417489;28;20067;-64
2022/01/07 14:33:31;;;;;;;5.18;2.10;;;;;;;4.73;100.00;100661.78;10413757;28;20140;-65
2022/01/07 14:38:54;;;;;;;4.32;2.15;;;;;;;4.71;100.00;100659.34;10416007;28;20050;-63
2022/01/07 14:44:16;;;;;;;3.22;1.60;;;;;;;4.61;100.00;100658.06;10416495;28;20045;-66
2022/01/07 14:49:58;;;;;;;4.45;1.70;;;;;;;4.61;100.00;100669.22;10395564;28;20494;-63
2022/01/07 14:55:40;;;;;;;5.53;1.67;;;;;;;4.40;100.00;100653.81;10396647;28;20050;-64
2022/01/07 15:01:05;;;;;;;5.00;1.65;;;;;;;4.43;99.94;100648.53;10376084;28;20058;-64
2022/01/07 15:06:27;;;;;;;6.60;1.90;;;;;;;4.35;100.00;100651.44;10375770;28;20657;-64
2022/01/07 15:11:49;;;;;;;7.70;2.03;;;;;;;4.22;100.00;100655.44;10393969;28;20296;-62
2022/01/07 15:17:10;;;;;;;6.72;1.83;;;;;;;4.29;100.00;100662.03;10361945;28;20053;-62
2022/01/07 15:22:32;;;;;;;4.90;2.13;;;;;;;4.18;100.00;100653.06;10360801;28;20050;-62
2022/01/07 15:27:54;;;;;;;6.15;2.25;;;;;;;4.07;100.00;100650.91;10373223;28;20066;-63
2022/01/07 15:33:16;;;;;;;5.30;2.22;;;;;;;4.09;100.00;100648.25;10389873;28;20052;-63
2022/01/07 15:38:37;;;;;;;6.93;1.92;;;;;;;4.01;100.00;100655.47;10398866;28;20499;-63
2022/01/07 15:43:59;;;;;;;5.18;2.17;;;;;;;4.03;100.00;100658.84;10394122;28;20046;-63
2022/01/07 15:49:21;;;;;;;4.38;2.20;;;;;;;3.97;100.00;100661.66;10423526;28;20080;-61
2022/01/07 15:54:43;;;;;;;5.65;2.28;;;;;;;3.96;100.00;100657.38;10430858;28;20653;-63
2022/01/07 16:00:05;;;;;;;8.23;3.00;;;;;;;3.96;100.00;100652.22;10414621;28;20064;-63
2022/01/07 16:05:33;;;;;;;8.88;2.63;;;;;;;3.87;100.00;100657.78;10413523;28;20053;-62
2022/01/07 16:10:54;;;;;;;9.48;2.72;;;;;;;3.95;100.00;100655.72;10411454;28;20084;-63
2022/01/07 16:16:16;;;;;;;7.22;3.58;;;;;;;3.80;100.00;100661.47;10411249;28;20046;-63
2022/01/07 16:21:38;;;;;;;13.57;3.90;;;;;;;3.80;100.00;100656.31;10411737;28;20068;-62
2022/01/07 16:27:00;;;;;;;13.18;4.38;;;;;;;3.73;100.00;100654.91;10411213;28;20069;-63
2022/01/07 16:32:21;;;;;;;10.55;4.07;;;;;;;3.68;100.00;100651.66;10411000;28;20045;-63
2022/01/07 16:37:44;;;;;;;9.30;4.15;;;;;;;3.59;100.00;100646.03;10409608;28;20049;-63
2022/01/07 16:43:06;;;;;;;6.43;4.07;;;;;;;3.66;100.00;100647.47;10401115;28;20685;-63
2022/01/07 16:48:28;;;;;;;9.55;4.50;;;;;;;3.70;100.00;100638.72;10383706;28;20520;-63
2022/01/07 16:53:50;;;;;;;16.77;5.20;;;;;;;3.78;100.00;100641.84;10408857;28;20052;-63
2022/01/07 16:59:11;;;;;;;12.10;5.82;;;;;;;3.68;100.00;100640.53;10399187;28;20402;-63
2022/01/07 17:04:33;;;;;;;12.63;5.75;;;;;;;3.78;100.00;100641.84;10354276;28;20061;-63
2022/01/07 17:09:55;;;;;;;11.90;6.15;;;;;;;3.77;100.00;100641.00;10396820;28;20059;-63
2022/01/07 17:15:16;;;;;;;11.38;6.72;;;;;;;3.76;100.00;100639.31;10404692;28;20060;-63
2022/01/07 17:20:38;;;;;;;15.63;6.88;;;;;;;3.85;100.00;100638.94;10409725;28;20045;-63
2022/01/07 17:26:00;;;;;;;13.85;7.25;;;;;;;3.79;100.00;100639.19;10378425;28;20056;-63
2022/01/07 17:31:23;;;;;;;15.70;6.88;;;;;;;3.89;100.00;100623.28;10403427;28;20061;-64
2022/01/07 17:36:45;;;;;;;11.68;6.22;;;;;;;4.00;100.00;100622.84;10389675;28;20137;-63
2022/01/07 17:42:06;;;;;;;12.93;6.70;;;;;;;4.00;100.00;100620.28;10361463;28;20057;-63
2022/01/07 17:47:28;;;;;;;14.38;6.97;;;;;;;4.06;100.00;100625.19;10399054;28;20048;-63
2022/01/07 17:52:50;;;;;;;14.55;6.28;;;;;;;4.13;100.00;100630.03;10378931;28;20041;-64
2022/01/07 17:58:11;;;;;;;13.25;6.95;;;;;;;4.14;100.00;100636.00;10403394;28;20053;-63
2022/01/07 18:03:35;;;;;;;13.38;6.68;;;;;;;4.09;100.00;100638.78;10396177;28;20056;-63
2022/01/07 18:08:56;;;;;;;14.02;7.05;;;;;;;4.09;100.00;100641.38;10412901;28;20072;-64
2022/01/07 18:14:18;;;;;;;10.75;6.68;;;;;;;4.17;100.00;100641.06;10388599;28;20046;-64
2022/01/07 18:19:40;;;;;;;13.55;6.72;;;;;;;4.17;100.00;100635.91;10399341;28;20050;-63
2022/01/07 18:25:03;;;;;;;11.77;6.47;;;;;;;4.22;100.00;100644.28;10410770;28;20050;-63
2022/01/07 18:30:25;;;;;;;13.27;6.22;;;;;;;4.15;100.00;100632.53;10400143;28;20057;-64
2022/01/07 18:35:46;;;;;;;10.10;6.53;;;;;;;4.16;100.00;100639.38;10410117;28;20045;-63
2022/01/07 18:41:08;;;;;;;18.50;7.53;;;;;;;4.13;100.00;100642.06;10415596;28;20532;-64
2022/01/07 18:46:30;;;;;;;12.15;6.50;;;;;;;4.09;100.00;100649.09;10392365;28;20049;-63
2022/01/07 18:51:51;;;;;;;14.50;6.18;;;;;;;4.13;100.00;100658.41;10387963;28;20052;-64
2022/01/07 18:57:13;;;;;;;8.48;5.47;;;;;;;4.07;100.00;100655.25;10384990;28;20062;-63
2022/01/07 19:02:34;;;;;;;11.75;5.63;;;;;;;4.10;100.00;100660.25;10398247;28;20051;-64
2022/01/07 19:07:56;;;;;;;11.45;5.20;;;;;;;4.04;100.00;100661.34;10403006;28;20076;-64
2022/01/07 19:13:18;;;;;;;13.48;5.18;;;;;;;3.99;100.00;100668.44;10387550;28;20072;-64
2022/01/07 19:18:41;;;;;;;8.77;4.68;;;;;;;4.03;99.21;100669.97;10390757;28;20478;-62
2022/01/07 19:24:03;;;;;;;9.70;4.28;;;;;;;4.00;98.49;100674.44;10391615;28;20046;-64
2022/01/07 19:29:25;;;;;;;7.88;3.70;;;;;;;4.01;97.59;100670.94;10393492;28;20057;-63
2022/01/07 19:34:47;;;;;;;7.85;3.97;;;;;;;3.90;97.18;100667.97;10393850;28;20045;-64
2022/01/07 19:40:09;;;;;;;4.55;3.13;;;;;;;3.82;97.04;100673.44;10389283;28;20064;-62
2022/01/07 19:45:32;;;;;;;7.45;3.08;;;;;;;3.81;96.06;100670.88;10403425;28;20061;-64
2022/01/07 19:50:55;;;;;;;10.45;2.63;;;;;;;3.76;96.98;100670.25;10401866;28;20076;-63
2022/01/07 19:56:16;;;;;;;9.40;2.78;;;;;;;3.77;96.32;100664.19;10361732;28;20045;-64
2022/01/07 20:01:38;;;;;;;6.43;2.83;;;;;;;3.64;95.46;100664.72;10406152;28;20064;-63
2022/01/07 20:07:00;;;;;;;4.93;2.13;;;;;;;3.55;95.25;100678.81;10389302;28;20053;-64
2022/01/07 20:12:21;;;;;;;4.38;2.60;;;;;;;3.52;96.43;100683.25;10404335;28;20545;-63
2022/01/07 20:17:44;;;;;;;4.93;2.08;;;;;;;3.44;96.65;100674.97;10373867;28;20564;-64
2022/01/07 20:23:06;;;;;;;6.05;2.13;;;;;;;3.33;94.94;100674.53;10395992;28;20401;-63
2022/01/07 20:28:28;;;;;;;3.95;2.20;;;;;;;3.36;96.35;100680.41;10376416;28;20053;-62
2022/01/07 20:33:49;;;;;;;4.20;1.80;;;;;;;3.30;96.62;100674.63;10385086;28;20508;-64
2022/01/07 20:39:13;;;;;;;9.25;1.92;;;;;;;3.20;97.09;100684.44;10387152;28;20053;-64
2022/01/07 20:44:37;;;;;;;7.28;1.50;;;;;;;3.19;98.10;100677.63;10388929;28;20055;-63
2022/01/07 20:49:59;;;;;;;5.03;1.67;;;;;;;3.12;98.28;100678.75;10382471;28;20049;-62
2022/01/07 20:55:21;;;;;;;6.35;2.50;;;;;;;3.16;96.77;100679.47;10390232;28;20045;-61
2022/01/07 21:00:42;;;;;;;2.10;1.40;;;;;;;3.07;97.66;100680.63;10390283;28;20053;-63
2022/01/07 21:06:04;;;;;;;5.97;1.58;;;;;;;3.01;97.42;100688.59;10392896;28;20045;-65
2022/01/07 21:11:26;;;;;;;4.97;1.70;;;;;;;3.01;97.57;100678.31;10401471;28;20046;-62
2022/01/07 21:16:48;;;;;;;3.30;1.95;;;;;;;2.88;98.72;100676.22;10379750;28;20049;-61
2022/01/07 21:22:09;;;;;;;5.00;1.95;;;;;;;2.89;98.42;100672.75;10405247;28;20045;-62
2022/01/07 21:27:31;;;;;;;9.57;2.05;;;;;;;2.92;98.74;100673.47;10390385;28;20045;-62
2022/01/07 21:32:53;;;;;;;6.13;1.70;;;;;;;2.85;98.93;100682.31;10389740;28;20046;-62
2022/01/07 21:38:14;;;;;;;8.43;2.40;;;;;;;2.85;100.00;100674.59;10387726;28;20521;-65
2022/01/07 21:43:36;;;;;;;8.55;2.10;;;;;;;2.81;100.00;100673.91;10385943;28;20141;-61
2022/01/07 21:48:58;;;;;;;4.53;2.00;;;;;;;2.73;100.00;100678.50;10375953;28;20125;-62
2022/01/07 21:54:20;;;;;;;7.07;2.13;;;;;;;2.66;100.00;100669.31;10363295;28;20053;-63
2022/01/07 21:59:41;;;;;;;4.93;2.20;;;;;;;2.61;100.00;100676.38;10386640;28;20071;-62
2022/01/07 22:05:04;;;;;;;10.27;2.42;;;;;;;2.69;100.00;100675.22;10396950;28;20410;-62
2022/01/07 22:10:25;;;;;;;9.45;2.88;;;;;;;2.61;100.00;100676.38;10371225;28;20060;-62
2022/01/07 22:15:51;;;;;;;5.38;2.40;;;;;;;2.55;100.00;100692.00;10396214;28;20069;-63
2022/01/07 22:21:13;;;;;;;5.68;2.90;;;;;;;2.57;100.00;100698.78;10387765;28;20042;-63
2022/01/07 22:26:35;;;;;;;6.45;3.10;;;;;;;2.59;100.00;100693.59;10379949;28;20046;-63
2022/01/07 22:31:56;;;;;;;7.53;3.20;;;;;;;2.49;100.00;100687.06;10380578;28;20554;-62
2022/01/07 22:37:18;;;;;;;7.53;2.90;;;;;;;2.43;100.00;100682.97;10392064;28;20057;-63
2022/01/07 22:42:39;;;;;;;6.53;3.45;;;;;;;2.40;100.00;100692.53;10403565;28;20624;-64
2022/01/07 22:48:01;;;;;;;5.97;3.50;;;;;;;2.33;100.00;100702.19;10398497;28;20053;-67
2022/01/07 22:53:23;;;;;;;9.02;3.65;;;;;;;2.41;100.00;100694.22;10409910;28;20585;-67
2022/01/07 22:58:45;;;;;;;6.65;3.65;;;;;;;2.30;100.00;100701.44;10409850;28;20392;-67
2022/01/07 23:04:06;;;;;;;7.90;4.38;;;;;;;2.33;100.00;100707.31;10373771;28;20490;-66
2022/01/07 23:09:28;;;;;;;7.55;4.03;;;;;;;2.27;100.00;100716.97;10376654;28;20050;-66
2022/01/07 23:14:52;;;;;;;7.82;4.45;;;;;;;2.25;100.00;100716.19;10405543;28;20062;-67
2022/01/07 23:20:15;;;;;;;11.77;4.70;;;;;;;2.16;100.00;100726.78;10421976;28;20049;-67
2022/01/07 23:25:38;;;;;;;8.82;5.07;;;;;;;2.21;100.00;100724.88;10429227;28;20056;-66
2022/01/07 23:30:59;;;;;;;10.25;4.88;;;;;;;2.12;100.00;100727.75;10419332;28;20049;-66
2022/01/07 23:36:26;;;;;;;8.27;5.00;;;;;;;2.27;100.00;100706.69;10408571;28;20401;-66
2022/01/07 23:41:48;;;;;;;7.90;5.07;;;;;;;2.15;100.00;100701.94;10414022;28;20574;-66
2022/01/07 23:47:10;;;;;;;6.82;4.75;;;;;;;2.05;100.00;100711.69;10412981;28;20045;-65
2022/01/07 23:52:31;;;;;;;7.28;5.05;;;;;;;2.18;100.00;100709.56;10400084;28;20776;-66
2022/01/07 23:57:55;;;;;;;13.35;5.53;;;;;;;2.22;100.00;100703.41;10372936;28;20050;-67
